createdAt,value
2022-10-18T00:01:16.925Z,9
2022-10-18T00:03:17.016Z,9
2022-10-18T00:05:17.102Z,10
2022-10-18T00:07:17.238Z,10
2022-10-18T00:09:17.303Z,9
2022-10-18T00:11:17.407Z,8
2022-10-18T00:13:17.500Z,7
2022-10-18T00:15:17.602Z,7
2022-10-18T00:17:17.703Z,7
2022-10-18T00:19:17.786Z,7
2022-10-18T00:21:17.876Z,7
2022-10-18T00:23:17.979Z,6
2022-10-18T00:25:18.091Z,7
2022-10-18T00:27:18.192Z,7
2022-10-18T00:29:18.288Z,7
2022-10-18T00:31:18.389Z,7
2022-10-18T00:35:18.567Z,8
2022-10-18T00:37:18.771Z,8
2022-10-18T00:39:18.770Z,7
2022-10-18T00:41:18.844Z,7
2022-10-18T00:43:18.924Z,7
2022-10-18T00:45:19.022Z,7
2022-10-18T00:47:19.110Z,6
2022-10-18T00:49:19.217Z,6
2022-10-18T00:51:19.305Z,6
2022-10-18T00:53:19.494Z,6
2022-10-18T00:55:19.534Z,7
2022-10-18T00:57:19.594Z,6
2022-10-18T01:01:22.252Z,7
2022-10-18T01:03:19.861Z,6
2022-10-18T01:05:19.957Z,6
2022-10-18T01:09:20.123Z,5
2022-10-18T01:11:20.202Z,6
2022-10-18T01:13:23.394Z,5
2022-10-18T01:15:20.361Z,6
2022-10-18T01:17:20.440Z,6
2022-10-18T01:19:20.514Z,5
2022-10-18T01:21:20.608Z,5
2022-10-18T01:23:20.873Z,5
2022-10-18T01:25:20.761Z,6
2022-10-18T01:27:20.850Z,5
2022-10-18T01:29:20.922Z,5
2022-10-18T01:31:21.017Z,5
2022-10-18T01:33:21.101Z,5
2022-10-18T01:35:21.182Z,5
2022-10-18T01:37:21.281Z,5
2022-10-18T01:39:21.370Z,5
2022-10-18T01:41:21.425Z,5
2022-10-18T01:43:21.527Z,6
2022-10-18T01:45:21.607Z,6
2022-10-18T01:47:21.712Z,6
2022-10-18T01:49:21.801Z,6
2022-10-18T01:51:21.888Z,6
2022-10-18T01:53:21.971Z,7
2022-10-18T01:55:22.055Z,7
2022-10-18T01:57:52.174Z,7
2022-10-18T01:59:52.289Z,7
2022-10-18T02:01:52.374Z,7
2022-10-18T02:03:52.490Z,7
2022-10-18T02:08:00.344Z,7
2022-10-18T02:09:52.769Z,8
2022-10-18T02:11:52.862Z,7
2022-10-18T02:13:52.956Z,8
2022-10-18T02:17:53.148Z,8
2022-10-18T02:19:53.229Z,8
2022-10-18T02:21:53.351Z,9
2022-10-18T02:23:53.461Z,9
2022-10-18T02:25:53.593Z,10
2022-10-18T02:27:53.694Z,9
2022-10-18T02:29:53.822Z,7
2022-10-18T02:31:53.927Z,7
2022-10-18T02:33:54.052Z,6
2022-10-18T02:35:54.145Z,7
2022-10-18T02:37:54.244Z,6
2022-10-18T02:39:54.480Z,6
2022-10-18T02:41:54.461Z,6
2022-10-18T02:43:54.568Z,6
2022-10-18T02:45:54.690Z,5
2022-10-18T02:47:54.804Z,6
2022-10-18T02:49:54.910Z,6
2022-10-18T02:51:55.029Z,5
2022-10-18T02:53:55.158Z,5
2022-10-18T02:55:55.398Z,5
2022-10-18T02:57:55.350Z,5
2022-10-18T03:01:55.811Z,5
2022-10-18T03:03:55.690Z,5
2022-10-18T03:05:55.796Z,5
2022-10-18T03:09:56.036Z,6
2022-10-18T03:11:56.152Z,5
2022-10-18T03:13:56.260Z,6
2022-10-18T03:15:56.375Z,7
2022-10-18T03:17:56.488Z,6
2022-10-18T03:19:56.653Z,7
2022-10-18T03:21:56.716Z,6
2022-10-18T03:23:56.831Z,6
2022-10-18T03:25:56.947Z,6
2022-10-18T03:27:57.040Z,6
2022-10-18T03:29:57.123Z,6
2022-10-18T03:31:57.244Z,5
2022-10-18T03:33:57.352Z,6
2022-10-18T03:35:57.469Z,6
2022-10-18T03:37:57.564Z,5
2022-10-18T03:39:57.668Z,5
2022-10-18T03:45:58.113Z,6
2022-10-18T03:47:58.116Z,6
2022-10-18T03:49:58.227Z,6
2022-10-18T03:53:58.443Z,6
2022-10-18T03:57:58.662Z,5
2022-10-18T03:59:58.767Z,5
2022-10-18T04:01:58.971Z,6
2022-10-18T04:03:58.990Z,5
2022-10-18T04:05:59.099Z,6
2022-10-18T04:07:59.205Z,6
2022-10-18T04:09:59.305Z,6
2022-10-18T04:11:59.410Z,6
2022-10-18T04:13:59.532Z,7
2022-10-18T04:15:59.617Z,7
2022-10-18T04:17:59.728Z,7
2022-10-18T04:19:59.832Z,6
2022-10-18T04:21:59.952Z,6
2022-10-18T04:24:00.059Z,6
2022-10-18T04:26:00.163Z,5
2022-10-18T04:30:00.378Z,6
2022-10-18T04:32:00.484Z,6
2022-10-18T04:34:00.589Z,6
2022-10-18T04:36:00.701Z,6
2022-10-18T04:38:00.805Z,6
2022-10-18T04:40:00.918Z,7
2022-10-18T04:42:01.024Z,6
2022-10-18T04:44:01.127Z,6
2022-10-18T04:48:01.337Z,6
2022-10-18T04:50:01.446Z,6
2022-10-18T04:52:01.560Z,6
2022-10-18T04:54:01.648Z,8
2022-10-18T04:56:01.768Z,11
2022-10-18T04:58:01.848Z,6
2022-10-18T05:00:02.017Z,6
2022-10-18T05:02:04.731Z,6
2022-10-18T05:04:02.137Z,6
2022-10-18T05:06:02.677Z,6
2022-10-18T05:08:02.370Z,6
2022-10-18T05:10:02.424Z,6
2022-10-18T05:12:02.523Z,6
2022-10-18T05:14:02.636Z,6
2022-10-18T05:16:02.823Z,9
2022-10-18T05:18:02.839Z,10
2022-10-18T05:20:02.963Z,10
2022-10-18T05:22:03.023Z,9
2022-10-18T05:26:03.231Z,8
2022-10-18T05:28:10.512Z,8
2022-10-18T05:30:05.592Z,9
2022-10-18T05:32:03.525Z,8
2022-10-18T05:34:03.616Z,9
2022-10-18T05:36:03.686Z,9
2022-10-18T05:38:03.796Z,18
2022-10-18T05:40:03.912Z,9
2022-10-18T05:42:04.003Z,9
2022-10-18T05:44:04.094Z,11
2022-10-18T05:46:04.218Z,12
2022-10-18T05:48:04.320Z,11
2022-10-18T05:50:04.448Z,11
2022-10-18T05:52:04.517Z,11
2022-10-18T05:54:04.614Z,11
2022-10-18T05:56:04.721Z,12
2022-10-18T05:58:04.810Z,13
2022-10-18T06:00:04.913Z,12
2022-10-18T06:02:05.008Z,13
2022-10-18T06:04:05.120Z,13
2022-10-18T06:06:05.216Z,12
2022-10-18T06:08:09.378Z,12
2022-10-18T06:10:05.407Z,11
2022-10-18T06:12:05.516Z,11
2022-10-18T06:14:05.623Z,10
2022-10-18T06:16:05.710Z,10
2022-10-18T06:18:05.834Z,9
2022-10-18T06:20:05.869Z,10
2022-10-18T06:22:05.986Z,10
2022-10-18T06:24:06.066Z,11
2022-10-18T06:26:06.160Z,11
2022-10-18T06:30:06.346Z,11
2022-10-18T06:32:06.462Z,11
2022-10-18T06:34:06.543Z,12
2022-10-18T06:36:06.641Z,12
2022-10-18T06:38:06.709Z,12
2022-10-18T06:40:06.809Z,13
2022-10-18T06:42:06.906Z,15
2022-10-18T06:44:07.007Z,15
2022-10-18T06:46:07.099Z,15
2022-10-18T06:48:07.240Z,16
2022-10-18T06:50:07.294Z,16
2022-10-18T06:52:07.378Z,14
2022-10-18T06:54:17.440Z,14
2022-10-18T06:56:07.580Z,16
2022-10-18T06:58:07.659Z,16
2022-10-18T07:00:07.777Z,14
2022-10-18T07:02:07.965Z,14
2022-10-18T07:04:07.904Z,14
2022-10-18T07:06:08.136Z,13
2022-10-18T07:08:08.086Z,13
2022-10-18T07:10:11.196Z,13
2022-10-18T07:12:08.268Z,13
2022-10-18T07:14:08.850Z,12
2022-10-18T07:16:09.792Z,13
2022-10-18T07:18:08.528Z,13
2022-10-18T07:20:08.675Z,13
2022-10-18T07:24:08.814Z,13
2022-10-18T07:26:08.899Z,12
2022-10-18T07:28:08.984Z,13
2022-10-18T07:30:09.099Z,12
2022-10-18T07:32:09.171Z,12
2022-10-18T07:34:09.261Z,11
2022-10-18T07:36:09.362Z,12
2022-10-18T07:38:09.445Z,12
2022-10-18T07:40:09.580Z,11
2022-10-18T07:42:09.635Z,11
2022-10-18T07:44:09.731Z,11
2022-10-18T07:46:09.867Z,10
2022-10-18T07:48:09.915Z,10
2022-10-18T07:52:10.056Z,10
2022-10-18T07:54:10.224Z,11
2022-10-18T07:56:10.247Z,10
2022-10-18T07:58:10.390Z,11
2022-10-18T08:00:10.455Z,11
2022-10-18T08:02:10.505Z,10
2022-10-18T08:04:15.412Z,11
2022-10-18T08:06:10.677Z,11
2022-10-18T08:08:40.826Z,10
2022-10-18T08:10:40.947Z,10
2022-10-18T08:12:41.071Z,10
2022-10-18T08:14:41.183Z,9
2022-10-18T08:16:41.301Z,9
2022-10-18T08:18:41.418Z,10
2022-10-18T08:20:41.587Z,10
2022-10-18T08:22:41.660Z,11
2022-10-18T08:24:41.764Z,10
2022-10-18T08:26:41.905Z,10
2022-10-18T08:28:46.156Z,10
2022-10-18T08:30:42.122Z,9
2022-10-18T08:32:42.214Z,9
2022-10-18T08:34:42.322Z,9
2022-10-18T08:38:42.527Z,9
2022-10-18T08:42:42.758Z,10
2022-10-18T08:44:42.858Z,10
2022-10-18T08:46:42.965Z,9
2022-10-18T08:48:43.077Z,9
2022-10-18T08:50:43.182Z,9
2022-10-18T08:52:43.334Z,8
2022-10-18T08:54:43.413Z,7
2022-10-18T08:56:43.518Z,7
2022-10-18T08:58:43.639Z,7
2022-10-18T09:02:43.857Z,7
2022-10-18T09:06:44.074Z,7
2022-10-18T09:08:44.192Z,7
2022-10-18T09:10:44.270Z,7
2022-10-18T09:12:44.373Z,7
2022-10-18T09:14:44.466Z,7
2022-10-18T09:16:44.552Z,6
2022-10-18T09:18:44.658Z,6
2022-10-18T09:20:44.944Z,6
2022-10-18T09:22:44.862Z,6
2022-10-18T09:24:44.958Z,6
2022-10-18T09:26:45.055Z,6
2022-10-18T09:28:45.161Z,6
2022-10-18T09:30:45.244Z,5
2022-10-18T09:34:45.465Z,6
2022-10-18T09:36:45.541Z,6
2022-10-18T09:40:45.778Z,6
2022-10-18T09:44:45.930Z,7
2022-10-18T09:46:46.034Z,7
2022-10-18T09:48:46.128Z,7
2022-10-18T09:50:46.215Z,7
2022-10-18T09:52:46.317Z,7
2022-10-18T09:54:46.414Z,7
2022-10-18T09:56:46.606Z,7
2022-10-18T09:58:46.589Z,6
2022-10-18T10:02:46.877Z,7
2022-10-18T10:04:46.871Z,6
2022-10-18T10:06:46.958Z,6
2022-10-18T10:08:47.055Z,6
2022-10-18T10:10:47.146Z,7
2022-10-18T10:12:47.243Z,7
2022-10-18T10:14:47.344Z,6
2022-10-18T10:16:47.446Z,6
2022-10-18T10:20:47.675Z,6
2022-10-18T10:24:47.834Z,6
2022-10-18T10:26:47.929Z,6
2022-10-18T10:28:48.105Z,6
2022-10-18T10:30:48.124Z,6
2022-10-18T10:34:48.299Z,6
2022-10-18T10:36:48.403Z,5
2022-10-18T10:38:48.501Z,5
2022-10-18T10:40:48.622Z,6
2022-10-18T10:42:48.672Z,5
2022-10-18T10:46:48.840Z,5
2022-10-18T10:48:48.935Z,5
2022-10-18T10:50:50.887Z,5
2022-10-18T10:52:49.093Z,6
2022-10-18T10:55:34.223Z,5
2022-10-18T10:59:19.473Z,5
2022-10-18T11:01:19.642Z,5
2022-10-18T11:03:28.968Z,5
2022-10-18T11:05:19.812Z,5
2022-10-18T11:07:19.934Z,5
2022-10-18T11:09:20.030Z,5
2022-10-18T11:11:22.906Z,5
2022-10-18T11:13:20.253Z,5
2022-10-18T11:19:22.200Z,5
2022-10-18T11:21:20.726Z,5
2022-10-18T11:23:20.827Z,5
2022-10-18T11:25:20.890Z,5
2022-10-18T11:29:21.105Z,5
2022-10-18T11:31:21.206Z,5
2022-10-18T11:33:26.265Z,5
2022-10-18T11:37:29.458Z,5
2022-10-18T11:39:21.603Z,5
2022-10-18T11:41:21.711Z,6
2022-10-18T11:45:21.913Z,5
2022-10-18T11:47:21.989Z,6
2022-10-18T11:49:22.085Z,7
2022-10-18T11:51:29.743Z,6
2022-10-18T11:53:22.292Z,6
2022-10-18T11:55:22.353Z,6
2022-10-18T11:57:22.461Z,6
2022-10-18T11:59:22.558Z,6
2022-10-18T12:03:22.767Z,6
2022-10-18T12:05:24.286Z,5
2022-10-18T12:07:27.737Z,6
2022-10-18T12:11:23.087Z,6
2022-10-18T12:13:23.191Z,7
2022-10-18T12:15:23.289Z,6
2022-10-18T12:17:42.075Z,6
2022-10-18T12:19:26.398Z,5
2022-10-18T12:21:25.724Z,6
2022-10-18T12:23:23.641Z,6
2022-10-18T12:25:23.719Z,6
2022-10-18T12:27:23.802Z,7
2022-10-18T12:29:23.874Z,6
2022-10-18T12:31:23.987Z,6
2022-10-18T12:33:28.402Z,6
2022-10-18T12:35:24.155Z,5
2022-10-18T12:37:24.251Z,6
2022-10-18T12:39:33.331Z,6
2022-10-18T12:43:24.497Z,6
2022-10-18T12:45:24.589Z,5
2022-10-18T12:47:24.684Z,6
2022-10-18T12:49:24.762Z,6
2022-10-18T12:51:24.843Z,5
2022-10-18T12:55:55.096Z,5
2022-10-18T12:57:55.198Z,5
2022-10-18T12:59:55.297Z,5
2022-10-18T13:01:55.610Z,5
2022-10-18T13:03:55.531Z,5
2022-10-18T13:05:56.512Z,5
2022-10-18T13:07:55.744Z,5
2022-10-18T13:09:55.862Z,5
2022-10-18T13:12:01.122Z,4
2022-10-18T13:13:56.127Z,5
2022-10-18T13:15:56.201Z,4
2022-10-18T13:17:56.301Z,6
2022-10-18T13:20:20.548Z,5
2022-10-18T13:21:56.488Z,4
2022-10-18T13:23:56.586Z,5
2022-10-18T13:25:56.749Z,5
2022-10-18T13:27:56.801Z,4
2022-10-18T13:29:57.020Z,5
2022-10-18T13:31:57.008Z,5
2022-10-18T13:33:57.111Z,4
2022-10-18T13:37:57.363Z,4
2022-10-18T13:39:57.422Z,4
2022-10-18T13:41:58.065Z,4
2022-10-18T13:43:57.624Z,5
2022-10-18T13:45:57.729Z,4
2022-10-18T13:47:57.810Z,4
2022-10-18T13:49:59.606Z,4
2022-10-18T13:51:57.986Z,4
2022-10-18T13:55:58.170Z,4
2022-10-18T13:57:58.252Z,4
2022-10-18T13:59:58.359Z,4
2022-10-18T14:01:58.637Z,4
2022-10-18T14:03:58.906Z,5
2022-10-18T14:05:58.606Z,6
2022-10-18T14:07:58.697Z,5
2022-10-18T14:10:03.329Z,5
2022-10-18T14:11:58.915Z,5
2022-10-18T14:15:59.100Z,5
2022-10-18T14:17:59.189Z,5
2022-10-18T14:19:59.274Z,4
2022-10-18T14:21:59.355Z,5
2022-10-18T14:23:59.450Z,5
2022-10-18T14:27:59.618Z,5
2022-10-18T14:29:59.751Z,5
2022-10-18T14:31:59.803Z,5
2022-10-18T14:33:59.901Z,5
2022-10-18T14:35:59.983Z,5
2022-10-18T14:38:00.093Z,5
2022-10-18T14:40:00.173Z,4
2022-10-18T14:42:00.259Z,5
2022-10-18T14:44:00.346Z,5
2022-10-18T14:46:00.477Z,4
2022-10-18T14:48:30.560Z,4
2022-10-18T14:52:35.270Z,4
2022-10-18T14:54:32.097Z,4
2022-10-18T14:56:31.022Z,4
2022-10-18T14:58:31.134Z,4
2022-10-18T15:00:31.325Z,4
2022-10-18T15:02:31.737Z,4
2022-10-18T15:04:31.441Z,3
2022-10-18T15:06:31.556Z,3
2022-10-18T15:08:31.678Z,3
2022-10-18T15:12:41.039Z,4
2022-10-18T15:14:31.968Z,4
2022-10-18T15:16:32.118Z,4
2022-10-18T15:18:32.230Z,4
2022-10-18T15:20:32.285Z,4
2022-10-18T15:22:33.030Z,4
2022-10-18T15:26:32.615Z,4
2022-10-18T15:30:32.834Z,3
2022-10-18T15:32:33.234Z,4
2022-10-18T15:34:33.049Z,3
2022-10-18T15:36:33.295Z,4
2022-10-18T15:38:33.270Z,4
2022-10-18T15:40:33.372Z,5
2022-10-18T15:42:33.461Z,5
2022-10-18T15:44:33.571Z,5
2022-10-18T15:46:33.625Z,12
2022-10-18T15:48:33.730Z,9
2022-10-18T15:50:33.930Z,7
2022-10-18T15:52:37.463Z,8
2022-10-18T15:54:34.005Z,8
2022-10-18T15:56:34.109Z,10
2022-10-18T15:58:34.194Z,9
2022-10-18T16:00:34.303Z,9
2022-10-18T16:02:34.442Z,11
2022-10-18T16:04:34.495Z,14
2022-10-18T16:06:34.605Z,24
2022-10-18T16:08:34.692Z,16
2022-10-18T16:10:34.961Z,13
2022-10-18T16:12:35.000Z,20
2022-10-18T16:14:35.092Z,12
2022-10-18T16:16:35.181Z,21
2022-10-18T16:18:35.276Z,55
2022-10-18T16:20:35.369Z,174
2022-10-18T16:22:37.047Z,92
2022-10-18T16:24:35.559Z,31
2022-10-18T16:26:35.663Z,31
2022-10-18T16:28:35.818Z,22
2022-10-18T16:30:35.847Z,21
2022-10-18T16:32:35.930Z,31
2022-10-18T16:34:36.031Z,20
2022-10-18T16:36:36.112Z,11
2022-10-18T16:38:36.190Z,14
2022-10-18T16:40:38.942Z,10
2022-10-18T16:42:36.334Z,14
2022-10-18T16:44:36.421Z,13
2022-10-18T16:46:36.529Z,10
2022-10-18T16:48:36.618Z,12
2022-10-18T16:50:36.911Z,10
2022-10-18T16:52:36.778Z,11
2022-10-18T16:54:36.861Z,10
2022-10-18T16:56:36.957Z,8
2022-10-18T16:59:07.106Z,7
2022-10-18T17:01:09.010Z,9
2022-10-18T17:03:07.316Z,8
2022-10-18T17:05:07.447Z,7
2022-10-18T17:07:07.551Z,6
2022-10-18T17:09:07.680Z,6
2022-10-18T17:11:07.845Z,7
2022-10-18T17:13:07.898Z,7
2022-10-18T17:15:08.010Z,7
2022-10-18T17:17:08.138Z,6
2022-10-18T17:19:08.243Z,5
2022-10-18T17:23:08.427Z,6
2022-10-18T17:25:08.555Z,11
2022-10-18T17:27:08.671Z,20
2022-10-18T17:29:08.776Z,36
2022-10-18T17:31:08.873Z,18
2022-10-18T17:33:08.973Z,8
2022-10-18T17:35:09.097Z,7
2022-10-18T17:37:09.191Z,7
2022-10-18T17:39:09.310Z,7
2022-10-18T17:41:09.411Z,13
2022-10-18T17:43:09.512Z,24
2022-10-18T17:45:09.619Z,15
2022-10-18T17:49:09.837Z,12
2022-10-18T17:51:09.948Z,14
2022-10-18T17:53:10.063Z,19
2022-10-18T17:55:10.139Z,16
2022-10-18T17:57:10.214Z,17
2022-10-18T17:59:10.321Z,16
2022-10-18T18:01:10.422Z,21
2022-10-18T18:03:10.587Z,21
2022-10-18T18:05:10.639Z,20
2022-10-18T18:07:10.740Z,17
2022-10-18T18:09:10.862Z,14
2022-10-18T18:11:10.933Z,20
2022-10-18T18:13:11.187Z,25
2022-10-18T18:15:11.120Z,25
2022-10-18T18:17:11.238Z,24
2022-10-18T18:19:11.481Z,19
2022-10-18T18:21:11.437Z,14
2022-10-18T18:23:11.556Z,14
2022-10-18T18:25:11.658Z,11
2022-10-18T18:27:11.728Z,10
2022-10-18T18:29:11.835Z,8
2022-10-18T18:31:11.933Z,9
2022-10-18T18:33:12.030Z,8
2022-10-18T18:35:12.121Z,9
2022-10-18T18:37:12.225Z,10
2022-10-18T18:39:12.368Z,10
2022-10-18T18:41:12.376Z,10
2022-10-18T18:43:22.848Z,8
2022-10-18T18:45:12.567Z,6
2022-10-18T18:47:13.467Z,6
2022-10-18T18:49:12.755Z,6
2022-10-18T18:51:12.844Z,6
2022-10-18T18:53:12.968Z,5
2022-10-18T18:55:13.024Z,7
2022-10-18T18:57:13.121Z,6
2022-10-18T18:59:13.220Z,7
2022-10-18T19:01:13.392Z,7
2022-10-18T19:03:13.400Z,7
2022-10-18T19:05:13.525Z,9
2022-10-18T19:07:13.600Z,19
2022-10-18T19:09:13.801Z,26
2022-10-18T19:11:13.786Z,15
2022-10-18T19:13:13.910Z,19
2022-10-18T19:15:14.043Z,28
2022-10-18T19:17:14.056Z,23
2022-10-18T19:19:14.155Z,20
2022-10-18T19:21:14.245Z,20
2022-10-18T19:23:14.377Z,19
2022-10-18T19:25:14.420Z,18
2022-10-18T19:27:14.514Z,17
2022-10-18T19:29:14.601Z,16
2022-10-18T19:31:14.701Z,27
2022-10-18T19:33:14.839Z,21
2022-10-18T19:35:14.865Z,21
2022-10-18T19:37:14.956Z,17
2022-10-18T19:39:15.258Z,18
2022-10-18T19:41:15.168Z,22
2022-10-18T19:43:15.205Z,17
2022-10-18T19:45:15.304Z,15
2022-10-18T19:47:15.402Z,38
2022-10-18T19:49:15.498Z,38
2022-10-18T19:51:19.519Z,34
2022-10-18T19:53:15.686Z,42
2022-10-18T19:55:15.747Z,37
2022-10-18T19:57:15.818Z,33
2022-10-18T19:59:15.902Z,27
2022-10-18T20:01:16.006Z,19
2022-10-18T20:03:16.055Z,18
2022-10-18T20:05:16.140Z,20
2022-10-18T20:07:16.246Z,19
2022-10-18T20:09:19.662Z,17
2022-10-18T20:11:16.418Z,18
2022-10-18T20:13:16.500Z,17
2022-10-18T20:15:46.646Z,18
2022-10-18T20:17:46.762Z,19
2022-10-18T20:19:46.934Z,22
2022-10-18T20:21:47.138Z,24
2022-10-18T20:23:47.113Z,23
2022-10-18T20:25:47.240Z,21
2022-10-18T20:27:47.369Z,20
2022-10-18T20:29:47.478Z,21
2022-10-18T20:31:47.599Z,20
2022-10-18T20:33:47.761Z,19
2022-10-18T20:35:51.445Z,19
2022-10-18T20:37:47.965Z,20
2022-10-18T20:39:48.042Z,22
2022-10-18T20:41:48.172Z,25
2022-10-18T20:43:48.277Z,27
2022-10-18T20:45:48.369Z,27
2022-10-18T20:47:48.472Z,26
2022-10-18T20:49:48.586Z,21
2022-10-18T20:51:48.710Z,21
2022-10-18T20:53:48.817Z,17
2022-10-18T20:55:48.907Z,16
2022-10-18T20:57:49.021Z,13
2022-10-18T20:59:49.142Z,14
2022-10-18T21:01:49.465Z,13
2022-10-18T21:03:49.362Z,13
2022-10-18T21:05:49.488Z,14
2022-10-18T21:07:49.589Z,12
2022-10-18T21:09:49.702Z,12
2022-10-18T21:11:49.803Z,10
2022-10-18T21:15:50.008Z,11
2022-10-18T21:17:50.114Z,11
2022-10-18T21:19:50.211Z,9
2022-10-18T21:21:50.338Z,9
2022-10-18T21:23:50.436Z,13
2022-10-18T21:25:50.537Z,14
2022-10-18T21:27:50.657Z,18
2022-10-18T21:29:50.760Z,16
2022-10-18T21:31:50.882Z,15
2022-10-18T21:35:51.149Z,15
2022-10-18T21:37:51.209Z,14
2022-10-18T21:39:51.322Z,12
2022-10-18T21:41:51.596Z,14
2022-10-18T21:43:51.513Z,11
2022-10-18T21:45:51.610Z,11
2022-10-18T21:47:51.700Z,12
2022-10-18T21:49:51.806Z,11
2022-10-18T21:51:51.933Z,10
2022-10-18T21:53:52.253Z,9
2022-10-18T21:55:52.137Z,9
2022-10-18T21:57:52.239Z,8
2022-10-18T21:59:52.362Z,9
2022-10-18T22:01:52.471Z,9
2022-10-18T22:03:52.577Z,10
2022-10-18T22:05:52.678Z,10
2022-10-18T22:07:52.776Z,10
2022-10-18T22:09:52.868Z,10
2022-10-18T22:11:52.984Z,13
2022-10-18T22:13:53.062Z,10
2022-10-18T22:15:53.147Z,14
2022-10-18T22:17:53.257Z,14
2022-10-18T22:19:53.360Z,14
2022-10-18T22:21:53.477Z,13
2022-10-18T22:23:53.576Z,15
2022-10-18T22:25:53.680Z,14
2022-10-18T22:29:53.885Z,13
2022-10-18T22:31:53.966Z,13
2022-10-18T22:33:54.060Z,13
2022-10-18T22:35:54.214Z,13
2022-10-18T22:37:54.242Z,12
2022-10-18T22:39:54.342Z,12
2022-10-18T22:41:54.456Z,11
2022-10-18T22:43:55.624Z,12
2022-10-18T22:45:54.625Z,12
2022-10-18T22:47:54.740Z,13
2022-10-18T22:49:54.830Z,12
2022-10-18T22:51:54.945Z,12
2022-10-18T22:53:55.038Z,12
2022-10-18T22:55:55.120Z,12
2022-10-18T22:57:55.234Z,11
2022-10-18T22:59:55.336Z,11
2022-10-18T23:01:55.433Z,11
2022-10-18T23:03:55.545Z,10
2022-10-18T23:05:55.628Z,11
2022-10-18T23:07:55.780Z,10
2022-10-18T23:09:55.825Z,10
2022-10-18T23:11:55.940Z,11
2022-10-18T23:13:56.039Z,11
2022-10-18T23:15:56.300Z,14
2022-10-18T23:17:56.246Z,15
2022-10-18T23:19:56.347Z,14
2022-10-18T23:21:56.443Z,14
2022-10-18T23:23:56.541Z,13
2022-10-18T23:25:56.631Z,12
2022-10-18T23:27:56.707Z,13
2022-10-18T23:29:56.799Z,11
2022-10-18T23:31:56.915Z,11
2022-10-18T23:33:57.000Z,10
2022-10-18T23:35:57.109Z,11
2022-10-18T23:37:57.210Z,11
2022-10-18T23:39:57.312Z,11
2022-10-18T23:41:57.418Z,11
2022-10-18T23:43:57.506Z,11
2022-10-18T23:45:57.595Z,13
2022-10-18T23:47:57.753Z,15
2022-10-18T23:49:57.782Z,14
2022-10-18T23:51:57.877Z,15
2022-10-18T23:53:57.971Z,12
2022-10-18T23:55:58.069Z,10
2022-10-18T23:57:58.166Z,10
2022-10-18T23:59:58.262Z,11
